createdAt,value
2019-02-18T00:00:29.770Z,19.04
2019-02-18T00:01:39.464Z,19.06
2019-02-18T00:02:49.407Z,19.08
2019-02-18T00:03:59.363Z,19.04
2019-02-18T00:05:08.823Z,19
2019-02-18T00:06:18.526Z,19
2019-02-18T00:07:28.466Z,19.06
2019-02-18T00:08:37.665Z,18.99
2019-02-18T00:09:47.377Z,18.94
2019-02-18T00:10:57.077Z,18.99
2019-02-18T00:12:07.008Z,18.98
2019-02-18T00:13:16.971Z,18.88
2019-02-18T00:14:25.923Z,19
2019-02-18T00:15:35.608Z,18.91
2019-02-18T00:16:45.095Z,18.94
2019-02-18T00:17:55.055Z,18.88
2019-02-18T00:19:04.788Z,18.91
2019-02-18T00:20:14.232Z,18.91
2019-02-18T00:21:23.667Z,18.92
2019-02-18T00:22:33.354Z,18.91
2019-02-18T00:23:43.296Z,18.91
2019-02-18T00:24:52.486Z,18.99
2019-02-18T00:26:01.925Z,18.9
2019-02-18T00:27:11.381Z,18.99
2019-02-18T00:28:21.084Z,19
2019-02-18T00:29:30.766Z,18.91
2019-02-18T00:30:40.473Z,18.95
2019-02-18T00:31:50.420Z,18.88
2019-02-18T00:33:00.158Z,18.91
2019-02-18T00:34:09.870Z,18.95
2019-02-18T00:35:19.819Z,18.94
2019-02-18T00:36:29.255Z,18.94
2019-02-18T00:37:39.185Z,18.95
2019-02-18T00:38:48.878Z,18.85
2019-02-18T00:39:58.328Z,18.94
2019-02-18T00:41:08.316Z,18.85
2019-02-18T00:42:18.010Z,18.84
2019-02-18T00:43:27.723Z,18.85
2019-02-18T00:44:37.710Z,18.88
2019-02-18T00:45:47.648Z,18.84
2019-02-18T00:46:57.336Z,18.84
2019-02-18T00:48:07.032Z,18.82
2019-02-18T00:49:16.493Z,18.8
2019-02-18T00:50:26.490Z,18.88
2019-02-18T00:51:36.437Z,18.85
2019-02-18T00:52:46.131Z,18.84
2019-02-18T00:53:55.862Z,18.81
2019-02-18T00:55:05.551Z,18.78
2019-02-18T00:56:15.236Z,18.85
2019-02-18T00:57:24.937Z,18.9
2019-02-18T00:58:34.622Z,18.85
2019-02-18T00:59:44.574Z,18.85
2019-02-18T01:00:54.263Z,18.84
2019-02-18T01:02:03.201Z,18.82
2019-02-18T01:03:13.164Z,18.88
2019-02-18T01:04:22.636Z,18.84
2019-02-18T01:05:32.348Z,18.75
2019-02-18T01:06:42.069Z,18.78
2019-02-18T01:07:52.078Z,18.72
2019-02-18T01:09:01.777Z,18.78
2019-02-18T01:10:11.715Z,18.78
2019-02-18T01:11:21.411Z,18.73
2019-02-18T01:12:31.115Z,18.76
2019-02-18T01:13:47.066Z,18.75
2019-02-18T01:14:56.765Z,18.7
2019-02-18T01:16:06.471Z,18.78
2019-02-18T01:17:16.431Z,18.76
2019-02-18T01:18:26.135Z,18.75
2019-02-18T01:19:36.081Z,18.76
2019-02-18T01:20:45.527Z,18.66
2019-02-18T01:21:54.982Z,18.65
2019-02-18T01:23:04.472Z,18.72
2019-02-18T01:24:13.931Z,18.65
2019-02-18T01:25:23.636Z,18.69
2019-02-18T01:26:33.343Z,18.67
2019-02-18T01:27:43.034Z,18.7
2019-02-18T01:28:52.736Z,18.67
2019-02-18T01:30:02.680Z,18.73
2019-02-18T01:31:12.129Z,18.73
2019-02-18T01:32:21.322Z,18.65
2019-02-18T01:33:31.083Z,18.65
2019-02-18T01:34:40.766Z,18.66
2019-02-18T01:35:50.458Z,18.69
2019-02-18T01:37:00.401Z,18.67
2019-02-18T01:38:10.395Z,18.62
2019-02-18T01:39:20.354Z,18.62
2019-02-18T01:40:30.070Z,18.69
2019-02-18T01:41:39.518Z,18.66
2019-02-18T01:42:49.295Z,18.65
2019-02-18T01:43:58.741Z,18.69
2019-02-18T01:45:08.438Z,18.72
2019-02-18T01:46:18.394Z,18.7
2019-02-18T01:47:28.340Z,18.57
2019-02-18T01:48:37.784Z,18.66
2019-02-18T01:49:47.725Z,18.57
2019-02-18T01:50:57.412Z,18.66
2019-02-18T01:52:06.594Z,18.62
2019-02-18T01:53:16.286Z,18.62
2019-02-18T01:54:25.985Z,18.62
2019-02-18T01:55:35.961Z,18.62
2019-02-18T01:56:45.411Z,18.6
2019-02-18T01:57:55.363Z,18.6
2019-02-18T01:59:05.058Z,18.58
2019-02-18T02:00:14.541Z,18.58
2019-02-18T02:01:24.230Z,18.63
2019-02-18T02:02:34.164Z,18.57
2019-02-18T02:03:43.874Z,18.62
2019-02-18T02:04:53.611Z,18.54
2019-02-18T02:06:03.300Z,18.57
2019-02-18T02:07:13.012Z,18.54
2019-02-18T02:08:22.199Z,18.62
2019-02-18T02:09:31.642Z,18.54
2019-02-18T02:10:41.112Z,18.57
2019-02-18T02:11:50.793Z,18.54
2019-02-18T02:13:00.502Z,18.57
2019-02-18T02:14:10.187Z,18.55
2019-02-18T02:15:19.639Z,18.57
2019-02-18T02:16:29.103Z,18.52
2019-02-18T02:17:39.040Z,18.41
2019-02-18T02:18:48.727Z,18.57
2019-02-18T02:19:58.420Z,18.55
2019-02-18T02:21:07.897Z,18.48
2019-02-18T02:22:17.613Z,18.57
2019-02-18T02:23:27.319Z,18.55
2019-02-18T02:24:37.022Z,18.54
2019-02-18T02:25:46.746Z,18.52
2019-02-18T02:26:56.451Z,18.45
2019-02-18T02:28:06.157Z,18.55
2019-02-18T02:29:16.126Z,18.5
2019-02-18T02:30:26.102Z,18.45
2019-02-18T02:31:35.821Z,18.45
2019-02-18T02:32:45.780Z,18.51
2019-02-18T02:33:55.762Z,18.45
2019-02-18T02:35:05.755Z,18.48
2019-02-18T02:36:15.719Z,18.47
2019-02-18T02:37:25.425Z,18.45
2019-02-18T02:38:35.133Z,18.48
2019-02-18T02:39:44.599Z,18.45
2019-02-18T02:40:54.571Z,18.51
2019-02-18T02:42:04.544Z,18.39
2019-02-18T02:43:14.233Z,18.47
2019-02-18T02:44:24.198Z,18.48
2019-02-18T02:45:33.900Z,18.48
2019-02-18T02:46:43.850Z,18.36
2019-02-18T02:47:53.560Z,18.42
2019-02-18T02:49:03.045Z,18.44
2019-02-18T02:50:12.512Z,18.39
2019-02-18T02:51:22.243Z,18.44
2019-02-18T02:52:31.948Z,18.47
2019-02-18T02:53:41.391Z,18.37
2019-02-18T02:54:51.081Z,18.42
2019-02-18T02:56:00.590Z,18.41
2019-02-18T02:57:10.304Z,18.42
2019-02-18T02:58:20.025Z,18.41
2019-02-18T02:59:29.964Z,18.37
2019-02-18T03:00:39.906Z,18.44
2019-02-18T03:01:49.630Z,18.42
2019-02-18T03:02:59.321Z,18.39
2019-02-18T03:04:09.006Z,18.33
2019-02-18T03:05:18.798Z,18.41
2019-02-18T03:06:28.244Z,18.32
2019-02-18T03:07:38.194Z,18.37
2019-02-18T03:08:47.650Z,18.39
2019-02-18T03:09:57.346Z,18.32
2019-02-18T03:11:06.783Z,18.35
2019-02-18T03:12:16.484Z,18.32
2019-02-18T03:13:26.213Z,18.32
2019-02-18T03:14:36.163Z,18.32
2019-02-18T03:15:45.879Z,18.29
2019-02-18T03:16:55.589Z,18.29
2019-02-18T03:18:04.812Z,18.33
2019-02-18T03:19:14.859Z,18.3
2019-02-18T03:20:24.817Z,18.36
2019-02-18T03:21:34.008Z,18.36
2019-02-18T03:22:43.717Z,18.33
2019-02-18T03:23:53.671Z,18.29
2019-02-18T03:25:03.376Z,18.26
2019-02-18T03:26:13.361Z,18.27
2019-02-18T03:27:23.310Z,18.25
2019-02-18T03:28:33.297Z,18.32
2019-02-18T03:29:43.007Z,18.32
2019-02-18T03:30:53.008Z,18.25
2019-02-18T03:32:03.179Z,18.29
2019-02-18T03:33:13.161Z,18.27
2019-02-18T03:34:23.198Z,18.32
2019-02-18T03:35:32.918Z,18.32
2019-02-18T03:36:42.925Z,18.32
2019-02-18T03:37:52.643Z,18.32
2019-02-18T03:39:02.088Z,18.27
2019-02-18T03:40:11.559Z,18.3
2019-02-18T03:41:21.265Z,18.25
2019-02-18T03:42:31.200Z,18.36
2019-02-18T03:43:40.893Z,18.26
2019-02-18T03:44:50.837Z,18.27
2019-02-18T03:46:00.542Z,18.29
2019-02-18T03:47:10.517Z,18.26
2019-02-18T03:48:20.583Z,18.29
2019-02-18T03:49:30.304Z,18.32
2019-02-18T03:50:40.278Z,18.18
2019-02-18T03:51:49.997Z,18.29
2019-02-18T03:52:59.685Z,18.36
2019-02-18T03:54:09.393Z,18.25
2019-02-18T03:55:18.588Z,18.21
2019-02-18T03:56:28.546Z,18.25
2019-02-18T03:57:38.236Z,18.25
2019-02-18T03:58:48.232Z,18.26
2019-02-18T03:59:57.671Z,18.2
2019-02-18T04:01:07.635Z,18.23
2019-02-18T04:02:17.579Z,18.3
2019-02-18T04:03:27.534Z,18.32
2019-02-18T04:04:37.498Z,18.26
2019-02-18T04:05:47.222Z,18.26
2019-02-18T04:06:57.181Z,18.3
2019-02-18T04:08:06.923Z,18.18
2019-02-18T04:09:16.360Z,18.21
2019-02-18T04:10:25.872Z,18.27
2019-02-18T04:11:35.877Z,18.23
2019-02-18T04:12:45.866Z,18.21
2019-02-18T04:13:55.574Z,18.21
2019-02-18T04:15:05.311Z,18.21
2019-02-18T04:16:15.010Z,18.25
2019-02-18T04:17:24.712Z,18.1
2019-02-18T04:18:34.159Z,18.14
2019-02-18T04:19:44.105Z,18.18
2019-02-18T04:20:53.357Z,18.2
2019-02-18T04:22:03.078Z,18.2
2019-02-18T04:23:13.072Z,18.18
2019-02-18T04:24:22.332Z,18.14
2019-02-18T04:25:32.024Z,18.25
2019-02-18T04:26:41.474Z,18.26
2019-02-18T04:27:51.427Z,18.25
2019-02-18T04:29:01.381Z,18.14
2019-02-18T04:30:13.583Z,18.26
2019-02-18T04:31:23.666Z,18.2
2019-02-18T04:32:33.621Z,18.26
2019-02-18T04:33:43.309Z,18.26
2019-02-18T04:34:53.251Z,18.23
2019-02-18T04:36:02.438Z,18.25
2019-02-18T04:37:12.409Z,18.29
2019-02-18T04:38:22.113Z,18.2
2019-02-18T04:39:32.062Z,18.25
2019-02-18T04:40:42.002Z,18.33
2019-02-18T04:41:51.507Z,18.18
2019-02-18T04:43:01.457Z,18.17
2019-02-18T04:44:11.163Z,18.15
2019-02-18T04:45:20.873Z,18.3
2019-02-18T04:46:30.576Z,18.18
2019-02-18T04:47:40.519Z,18.25
2019-02-18T04:48:50.471Z,18.27
2019-02-18T04:49:59.677Z,18.15
2019-02-18T04:51:09.631Z,18.26
2019-02-18T04:52:19.572Z,18.15
2019-02-18T04:53:29.330Z,18.23
2019-02-18T04:54:39.034Z,18.18
2019-02-18T04:55:48.979Z,18.21
2019-02-18T04:56:58.241Z,18.17
2019-02-18T04:58:10.844Z,18.15
2019-02-18T04:59:20.811Z,18.14
2019-02-18T05:00:30.258Z,18.18
2019-02-18T05:01:40.205Z,18.21
2019-02-18T05:02:50.157Z,18.17
2019-02-18T05:03:59.863Z,18.25
2019-02-18T05:05:09.572Z,18.12
2019-02-18T05:06:19.533Z,18.12
2019-02-18T05:07:30.866Z,18.14
2019-02-18T05:08:40.332Z,18.14
2019-02-18T05:09:50.046Z,18.18
2019-02-18T05:10:59.487Z,18.17
2019-02-18T05:12:09.436Z,18.08
2019-02-18T05:13:19.143Z,18.1
2019-02-18T05:14:29.106Z,18.14
2019-02-18T05:15:40.273Z,18.07
2019-02-18T05:16:50.325Z,18.07
2019-02-18T05:18:00.271Z,18.1
2019-02-18T05:19:09.976Z,18.07
2019-02-18T05:20:19.671Z,18.1
2019-02-18T05:21:29.625Z,18.12
2019-02-18T05:22:39.566Z,18.1
2019-02-18T05:23:49.516Z,18.08
2019-02-18T05:24:59.211Z,18.07
2019-02-18T05:26:08.671Z,18.08
2019-02-18T05:27:18.375Z,18.05
2019-02-18T05:28:38.537Z,18.03
2019-02-18T05:29:48.276Z,18.05
2019-02-18T05:30:57.764Z,17.99
2019-02-18T05:32:07.737Z,18.05
2019-02-18T05:33:17.686Z,18.07
2019-02-18T05:34:27.654Z,17.97
2019-02-18T05:35:37.109Z,17.97
2019-02-18T05:36:46.807Z,17.96
2019-02-18T05:37:56.779Z,17.92
2019-02-18T05:39:17.321Z,17.92
2019-02-18T05:40:27.315Z,17.93
2019-02-18T05:41:37.323Z,17.96
2019-02-18T05:42:46.538Z,17.92
2019-02-18T05:43:56.485Z,17.93
2019-02-18T05:45:06.202Z,17.93
2019-02-18T05:46:16.252Z,17.92
2019-02-18T05:47:26.269Z,17.96
2019-02-18T05:48:38.815Z,17.9
2019-02-18T05:49:48.921Z,17.93
2019-02-18T05:50:58.916Z,17.96
2019-02-18T05:52:08.934Z,17.89
2019-02-18T05:53:18.883Z,17.92
2019-02-18T05:54:28.844Z,17.89
2019-02-18T05:55:38.535Z,17.96
2019-02-18T05:56:48.228Z,17.95
2019-02-18T05:57:57.944Z,17.95
2019-02-18T05:59:07.932Z,17.92
2019-02-18T06:00:17.370Z,17.96
2019-02-18T06:01:27.320Z,17.96
2019-02-18T06:02:36.771Z,17.95
2019-02-18T06:03:46.231Z,17.89
2019-02-18T06:04:56.014Z,17.96
2019-02-18T06:06:05.972Z,17.95
2019-02-18T06:07:15.686Z,17.96
2019-02-18T06:08:25.157Z,17.96
2019-02-18T06:09:35.242Z,17.93
2019-02-18T06:10:45.256Z,17.92
2019-02-18T06:11:54.961Z,17.92
2019-02-18T06:13:04.405Z,17.92
2019-02-18T06:14:14.107Z,17.95
2019-02-18T06:15:24.085Z,17.97
2019-02-18T06:16:33.787Z,18
2019-02-18T06:17:43.485Z,18
2019-02-18T06:18:53.256Z,18.02
2019-02-18T06:20:03.202Z,18
2019-02-18T06:21:12.890Z,17.99
2019-02-18T06:22:22.089Z,17.93
2019-02-18T06:23:31.790Z,18
2019-02-18T06:24:41.739Z,17.95
2019-02-18T06:25:51.448Z,17.96
2019-02-18T06:27:01.402Z,17.93
2019-02-18T06:28:11.099Z,17.95
2019-02-18T06:29:20.565Z,17.95
2019-02-18T06:30:30.050Z,17.92
2019-02-18T06:31:39.761Z,17.96
2019-02-18T06:32:49.467Z,17.96
2019-02-18T06:33:59.405Z,17.96
2019-02-18T06:35:09.353Z,17.96
2019-02-18T06:36:19.300Z,17.95
2019-02-18T06:37:31.507Z,17.96
2019-02-18T06:38:41.298Z,17.93
2019-02-18T06:39:50.998Z,17.95
2019-02-18T06:41:00.691Z,17.92
2019-02-18T06:42:11.210Z,17.92
2019-02-18T06:43:20.845Z,17.93
2019-02-18T06:44:30.552Z,17.86
2019-02-18T06:45:40.498Z,17.92
2019-02-18T06:46:50.203Z,17.89
2019-02-18T06:47:59.647Z,17.92
2019-02-18T06:49:09.593Z,17.93
2019-02-18T06:50:19.542Z,17.92
2019-02-18T06:51:28.980Z,17.89
2019-02-18T06:52:38.422Z,17.92
2019-02-18T06:53:48.132Z,17.95
2019-02-18T06:54:57.865Z,17.9
2019-02-18T06:56:07.913Z,17.89
2019-02-18T06:57:17.107Z,17.86
2019-02-18T06:58:26.582Z,17.86
2019-02-18T06:59:36.529Z,17.87
2019-02-18T07:00:46.508Z,17.93
2019-02-18T07:01:56.472Z,17.87
2019-02-18T07:03:06.188Z,17.93
2019-02-18T07:04:15.652Z,17.86
2019-02-18T07:05:25.360Z,17.84
2019-02-18T07:06:35.300Z,17.93
2019-02-18T07:07:45.245Z,17.89
2019-02-18T07:08:56.099Z,17.93
2019-02-18T07:10:06.193Z,17.89
2019-02-18T07:11:15.897Z,17.92
2019-02-18T07:12:25.389Z,17.87
2019-02-18T07:13:35.213Z,17.89
2019-02-18T07:14:44.653Z,17.92
2019-02-18T07:15:54.369Z,17.93
2019-02-18T07:17:03.823Z,17.95
2019-02-18T07:18:15.759Z,17.95
2019-02-18T07:19:25.188Z,17.92
2019-02-18T07:20:34.898Z,17.93
2019-02-18T07:21:44.848Z,17.96
2019-02-18T07:22:54.906Z,17.93
2019-02-18T07:24:04.626Z,17.89
2019-02-18T07:25:14.334Z,17.96
2019-02-18T07:26:23.777Z,17.93
2019-02-18T07:27:33.500Z,17.89
2019-02-18T07:28:42.946Z,17.9
2019-02-18T07:29:52.392Z,17.89
2019-02-18T07:31:02.108Z,17.96
2019-02-18T07:32:12.060Z,17.9
2019-02-18T07:33:22.106Z,17.96
2019-02-18T07:34:31.813Z,17.9
2019-02-18T07:35:41.509Z,17.92
2019-02-18T07:36:50.983Z,17.9
2019-02-18T07:38:00.197Z,17.96
2019-02-18T07:39:10.175Z,17.96
2019-02-18T07:40:20.129Z,17.95
2019-02-18T07:41:29.842Z,17.97
2019-02-18T07:42:39.277Z,17.99
2019-02-18T07:43:48.965Z,17.96
2019-02-18T07:44:58.785Z,17.97
2019-02-18T07:46:08.523Z,17.96
2019-02-18T07:47:17.955Z,17.97
2019-02-18T07:48:27.147Z,17.95
2019-02-18T07:49:36.852Z,18
2019-02-18T07:50:46.057Z,17.97
2019-02-18T07:51:55.787Z,18
2019-02-18T07:53:05.244Z,17.95
2019-02-18T07:54:15.075Z,17.97
2019-02-18T07:55:25.064Z,18
2019-02-18T07:56:35.034Z,17.99
2019-02-18T07:57:44.229Z,17.97
2019-02-18T07:58:54.171Z,17.96
2019-02-18T08:00:03.629Z,18
2019-02-18T08:01:13.325Z,18
2019-02-18T08:02:23.047Z,18
2019-02-18T08:03:33.015Z,17.97
2019-02-18T08:04:42.971Z,18
2019-02-18T08:05:52.673Z,18
2019-02-18T08:07:02.393Z,18.05
2019-02-18T08:08:12.356Z,18
2019-02-18T08:09:22.302Z,18.02
2019-02-18T08:10:32.264Z,17.97
2019-02-18T08:11:41.990Z,18
2019-02-18T08:12:51.453Z,18.03
2019-02-18T08:14:01.404Z,18.02
2019-02-18T08:15:10.862Z,18.03
2019-02-18T08:16:20.805Z,18.03
2019-02-18T08:17:30.761Z,18.02
2019-02-18T08:18:40.701Z,18.02
2019-02-18T08:19:50.661Z,18.03
2019-02-18T08:21:00.421Z,18
2019-02-18T08:22:09.870Z,18.03
2019-02-18T08:23:19.825Z,18.05
2019-02-18T08:24:29.531Z,17.96
2019-02-18T08:25:39.479Z,18.03
2019-02-18T08:26:49.082Z,18.03
2019-02-18T08:27:58.298Z,18
2019-02-18T08:29:08.016Z,18.03
2019-02-18T08:30:17.952Z,18.08
2019-02-18T08:31:27.680Z,18.05
2019-02-18T08:32:37.624Z,18.07
2019-02-18T08:33:47.347Z,18.05
2019-02-18T08:34:56.796Z,18.03
2019-02-18T08:36:06.754Z,18.11
2019-02-18T08:37:16.721Z,18.02
2019-02-18T08:38:26.419Z,18.07
2019-02-18T08:39:36.372Z,18.07
2019-02-18T08:40:45.811Z,18.08
2019-02-18T08:41:55.524Z,18.14
2019-02-18T08:43:05.498Z,18.03
2019-02-18T08:44:15.196Z,18.08
2019-02-18T08:45:24.716Z,18.08
2019-02-18T08:46:34.434Z,18.08
2019-02-18T08:47:44.135Z,18.03
2019-02-18T08:48:53.826Z,18.02
2019-02-18T08:50:03.532Z,18.12
2019-02-18T08:51:13.237Z,18.12
2019-02-18T08:52:22.708Z,18.1
2019-02-18T08:53:32.650Z,18.15
2019-02-18T08:54:42.346Z,18.1
2019-02-18T08:56:01.599Z,18.08
2019-02-18T08:57:11.302Z,18.03
2019-02-18T08:58:21.013Z,18.1
2019-02-18T08:59:30.985Z,18.18
2019-02-18T09:00:40.673Z,18.03
2019-02-18T09:01:50.174Z,18.12
2019-02-18T09:02:59.872Z,18.14
2019-02-18T09:04:09.641Z,18.15
2019-02-18T09:05:19.908Z,18.2
2019-02-18T09:06:29.973Z,18.18
2019-02-18T09:07:39.703Z,18.07
2019-02-18T09:08:49.411Z,18.12
2019-02-18T09:09:59.106Z,18.12
2019-02-18T09:11:08.549Z,18.15
2019-02-18T09:12:18.287Z,18.14
2019-02-18T09:13:28.001Z,18.12
2019-02-18T09:14:37.723Z,18.18
2019-02-18T09:15:46.669Z,18.18
2019-02-18T09:17:07.399Z,18.18
2019-02-18T09:18:16.600Z,18.12
2019-02-18T09:19:25.793Z,18.15
2019-02-18T09:20:35.750Z,18.18
2019-02-18T09:21:45.230Z,18.18
2019-02-18T09:22:54.689Z,18.15
2019-02-18T09:24:03.966Z,18.17
2019-02-18T09:25:13.975Z,18.18
2019-02-18T09:26:23.441Z,18.15
2019-02-18T09:27:33.493Z,18.21
2019-02-18T09:28:43.196Z,18.15
2019-02-18T09:29:52.712Z,18.18
2019-02-18T09:31:02.222Z,18.18
2019-02-18T09:32:11.927Z,18.18
2019-02-18T09:33:21.682Z,18.23
2019-02-18T09:34:31.399Z,18.23
2019-02-18T09:35:41.118Z,18.25
2019-02-18T09:36:50.818Z,18.18
2019-02-18T09:38:01.235Z,18.23
2019-02-18T09:39:11.228Z,18.18
2019-02-18T09:40:20.971Z,18.25
2019-02-18T09:41:31.032Z,18.26
2019-02-18T09:42:40.805Z,18.21
2019-02-18T09:43:50.513Z,18.26
2019-02-18T09:45:00.448Z,18.1
2019-02-18T09:46:10.201Z,18.18
2019-02-18T09:47:19.899Z,18.23
2019-02-18T09:48:29.343Z,18.2
2019-02-18T09:49:39.047Z,18.14
2019-02-18T09:50:48.999Z,18.25
2019-02-18T09:51:58.712Z,18.17
2019-02-18T09:53:08.436Z,18.23
2019-02-18T09:54:18.384Z,18.25
2019-02-18T09:55:28.411Z,18.15
2019-02-18T09:56:39.483Z,18.12
2019-02-18T09:57:49.170Z,18.15
2019-02-18T09:58:58.649Z,18.14
2019-02-18T10:00:09.060Z,18.12
2019-02-18T10:01:19.009Z,18.23
2019-02-18T10:02:28.481Z,18.12
2019-02-18T10:03:38.425Z,18.17
2019-02-18T10:04:48.124Z,18.14
2019-02-18T10:05:57.830Z,18.21
2019-02-18T10:07:07.856Z,18.25
2019-02-18T10:08:17.809Z,18.2
2019-02-18T10:09:27.107Z,18.33
2019-02-18T10:10:36.599Z,18.33
2019-02-18T10:11:46.071Z,18.2
2019-02-18T10:12:55.542Z,18.27
2019-02-18T10:14:06.862Z,18.29
2019-02-18T10:15:16.817Z,18.3
2019-02-18T10:16:26.764Z,18.27
2019-02-18T10:17:35.967Z,18.25
2019-02-18T10:18:45.690Z,18.27
2019-02-18T10:19:55.154Z,18.26
2019-02-18T10:21:04.403Z,18.32
2019-02-18T10:22:14.107Z,18.3
2019-02-18T10:23:24.063Z,18.32
2019-02-18T10:24:33.518Z,18.25
2019-02-18T10:25:43.465Z,18.25
2019-02-18T10:26:53.411Z,18.27
2019-02-18T10:28:03.119Z,18.33
2019-02-18T10:29:12.574Z,18.29
2019-02-18T10:30:25.481Z,18.32
2019-02-18T10:31:35.431Z,18.36
2019-02-18T10:32:44.901Z,18.29
2019-02-18T10:33:54.602Z,18.33
2019-02-18T10:35:04.307Z,18.41
2019-02-18T10:36:14.088Z,18.35
2019-02-18T10:37:24.059Z,18.33
2019-02-18T10:38:33.005Z,18.42
2019-02-18T10:39:44.943Z,18.37
2019-02-18T10:40:54.669Z,18.33
2019-02-18T10:42:14.633Z,18.39
2019-02-18T10:43:34.356Z,18.37
2019-02-18T10:44:44.353Z,18.44
2019-02-18T10:45:54.446Z,18.42
2019-02-18T10:47:05.060Z,18.41
2019-02-18T10:48:15.800Z,18.41
2019-02-18T10:49:28.431Z,18.47
2019-02-18T10:50:38.431Z,18.39
2019-02-18T10:51:48.694Z,18.42
2019-02-18T10:52:58.694Z,18.42
2019-02-18T10:54:08.744Z,18.45
2019-02-18T10:55:18.082Z,18.39
2019-02-18T10:56:28.087Z,18.51
2019-02-18T10:57:37.621Z,18.44
2019-02-18T10:58:47.603Z,18.45
2019-02-18T10:59:59.191Z,18.52
2019-02-18T11:01:08.637Z,18.45
2019-02-18T11:02:18.617Z,18.47
2019-02-18T11:03:28.159Z,18.45
2019-02-18T11:04:37.934Z,18.45
2019-02-18T11:05:47.944Z,18.5
2019-02-18T11:06:57.921Z,18.5
2019-02-18T11:08:07.635Z,18.44
2019-02-18T11:09:17.336Z,18.51
2019-02-18T11:10:27.058Z,18.51
2019-02-18T11:11:36.293Z,18.57
2019-02-18T11:12:47.566Z,18.42
2019-02-18T11:13:57.251Z,18.42
2019-02-18T11:15:06.975Z,18.55
2019-02-18T11:16:16.696Z,18.45
2019-02-18T11:17:26.811Z,18.52
2019-02-18T11:18:46.585Z,18.54
2019-02-18T11:19:56.783Z,18.54
2019-02-18T11:21:06.700Z,18.51
2019-02-18T11:22:16.187Z,18.52
2019-02-18T11:23:25.927Z,18.54
2019-02-18T11:24:35.654Z,18.57
2019-02-18T11:25:45.470Z,18.57
2019-02-18T11:26:55.442Z,18.57
2019-02-18T11:28:05.184Z,18.58
2019-02-18T11:29:14.667Z,18.6
2019-02-18T11:30:24.661Z,18.62
2019-02-18T11:31:34.428Z,18.58
2019-02-18T11:32:44.390Z,18.6
2019-02-18T11:33:54.362Z,18.62
2019-02-18T11:35:05.489Z,18.66
2019-02-18T11:36:15.465Z,18.63
2019-02-18T11:37:25.238Z,18.65
2019-02-18T11:38:35.216Z,18.69
2019-02-18T11:39:44.949Z,18.67
2019-02-18T11:40:54.741Z,18.63
2019-02-18T11:42:04.216Z,18.65
2019-02-18T11:43:13.714Z,18.63
2019-02-18T11:44:22.957Z,18.7
2019-02-18T11:45:34.722Z,18.65
2019-02-18T11:46:44.634Z,18.63
2019-02-18T11:47:54.103Z,18.69
2019-02-18T11:49:04.108Z,18.62
2019-02-18T11:50:13.872Z,18.7
2019-02-18T11:51:23.919Z,18.66
2019-02-18T11:52:33.638Z,18.66
2019-02-18T11:53:43.616Z,18.65
2019-02-18T11:54:53.361Z,18.76
2019-02-18T11:56:03.348Z,18.8
2019-02-18T11:57:13.311Z,18.78
2019-02-18T11:58:23.289Z,18.73
2019-02-18T11:59:33.028Z,18.76
2019-02-18T12:00:42.573Z,18.73
2019-02-18T12:01:52.331Z,18.72
2019-02-18T12:03:14.838Z,18.75
2019-02-18T12:04:25.653Z,18.78
2019-02-18T12:05:36.472Z,18.82
2019-02-18T12:06:49.727Z,18.82
2019-02-18T12:07:59.272Z,18.75
2019-02-18T12:09:08.938Z,18.78
2019-02-18T12:10:18.994Z,18.76
2019-02-18T12:11:37.529Z,18.82
2019-02-18T12:12:48.064Z,18.85
2019-02-18T12:13:57.577Z,18.87
2019-02-18T12:15:07.340Z,18.8
2019-02-18T12:16:17.133Z,18.84
2019-02-18T12:17:26.692Z,18.84
2019-02-18T12:18:36.684Z,18.82
2019-02-18T12:19:46.674Z,18.87
2019-02-18T12:20:56.469Z,18.84
2019-02-18T12:22:06.806Z,18.85
2019-02-18T12:23:16.909Z,18.85
2019-02-18T12:24:26.647Z,18.98
2019-02-18T12:25:36.615Z,18.81
2019-02-18T12:26:46.628Z,18.84
2019-02-18T12:27:56.155Z,18.95
2019-02-18T12:29:06.429Z,18.95
2019-02-18T12:30:16.007Z,18.88
2019-02-18T12:31:25.496Z,18.99
2019-02-18T12:32:35.273Z,18.94
2019-02-18T12:33:45.034Z,18.95
2019-02-18T12:34:57.073Z,18.85
2019-02-18T12:36:07.074Z,18.98
2019-02-18T12:37:16.286Z,18.98
2019-02-18T12:38:25.755Z,18.94
2019-02-18T12:39:35.755Z,18.92
2019-02-18T12:40:45.482Z,18.92
2019-02-18T12:41:55.253Z,18.88
2019-02-18T12:43:05.225Z,18.9
2019-02-18T12:44:14.730Z,18.91
2019-02-18T12:45:24.010Z,18.92
2019-02-18T12:46:33.513Z,18.95
2019-02-18T12:47:43.078Z,18.91
2019-02-18T12:48:53.141Z,18.95
2019-02-18T12:50:03.003Z,18.95
2019-02-18T12:51:12.547Z,18.91
2019-02-18T12:52:22.399Z,18.94
2019-02-18T12:53:32.481Z,19
2019-02-18T12:54:41.909Z,18.98
2019-02-18T12:55:51.997Z,18.99
2019-02-18T12:57:01.856Z,19.06
2019-02-18T12:58:11.671Z,19.04
2019-02-18T12:59:21.237Z,18.92
2019-02-18T13:00:34.152Z,19.02
2019-02-18T13:01:43.717Z,19.06
2019-02-18T13:02:53.250Z,19.04
2019-02-18T13:04:03.076Z,19.07
2019-02-18T13:05:12.103Z,19.08
2019-02-18T13:06:21.428Z,19.1
2019-02-18T13:07:31.475Z,19.04
2019-02-18T13:08:41.042Z,19.13
2019-02-18T13:09:50.876Z,19.1
2019-02-18T13:11:00.406Z,19.06
2019-02-18T13:12:10.476Z,19.08
2019-02-18T13:13:20.271Z,19.08
2019-02-18T13:14:30.391Z,19.14
2019-02-18T13:15:40.050Z,19.14
2019-02-18T13:16:49.592Z,19.19
2019-02-18T13:17:59.377Z,19.16
2019-02-18T13:19:09.639Z,19.19
2019-02-18T13:20:21.526Z,19.22
2019-02-18T13:21:31.359Z,19.16
2019-02-18T13:22:41.143Z,19.14
2019-02-18T13:23:51.191Z,19.25
2019-02-18T13:25:00.951Z,19.28
2019-02-18T13:26:10.501Z,19.25
2019-02-18T13:27:20.267Z,19.21
2019-02-18T13:28:30.018Z,19.28
2019-02-18T13:29:39.571Z,19.29
2019-02-18T13:30:49.340Z,19.36
2019-02-18T13:31:59.110Z,19.43
2019-02-18T13:33:09.169Z,19.41
2019-02-18T13:34:19.212Z,19.41
2019-02-18T13:35:29.300Z,19.46
2019-02-18T13:36:39.030Z,19.46
2019-02-18T13:37:48.528Z,19.4
2019-02-18T13:38:58.290Z,19.4
2019-02-18T13:40:08.309Z,19.4
2019-02-18T13:41:18.172Z,19.44
2019-02-18T13:42:27.799Z,19.43
2019-02-18T13:43:37.878Z,19.39
2019-02-18T13:44:48.015Z,19.55
2019-02-18T13:45:58.470Z,19.51
2019-02-18T13:47:09.635Z,19.46
2019-02-18T13:48:20.253Z,19.46
2019-02-18T13:49:30.316Z,19.5
2019-02-18T13:50:41.169Z,19.55
2019-02-18T13:51:58.995Z,19.55
2019-02-18T13:53:08.754Z,19.56
2019-02-18T13:54:18.750Z,19.63
2019-02-18T13:55:28.786Z,19.54
2019-02-18T13:56:38.076Z,19.58
2019-02-18T13:57:47.875Z,19.56
2019-02-18T13:58:57.667Z,19.61
2019-02-18T14:00:07.429Z,19.56
2019-02-18T14:01:17.200Z,19.55
2019-02-18T14:02:26.498Z,19.61
2019-02-18T14:03:36.247Z,19.59
2019-02-18T14:04:46.013Z,19.55
2019-02-18T14:05:56.005Z,19.62
2019-02-18T14:07:05.754Z,19.63
2019-02-18T14:08:15.498Z,19.61
2019-02-18T14:09:24.989Z,19.69
2019-02-18T14:10:34.501Z,19.69
2019-02-18T14:11:44.553Z,19.65
2019-02-18T14:12:54.048Z,19.62
2019-02-18T14:14:05.026Z,19.68
2019-02-18T14:15:14.797Z,19.65
2019-02-18T14:16:24.304Z,19.69
2019-02-18T14:17:34.038Z,19.73
2019-02-18T14:18:43.789Z,19.74
2019-02-18T14:19:53.775Z,19.73
2019-02-18T14:21:03.576Z,19.73
2019-02-18T14:22:13.574Z,19.8
2019-02-18T14:23:23.362Z,19.78
2019-02-18T14:24:33.342Z,19.8
2019-02-18T14:25:42.846Z,19.76
2019-02-18T14:26:52.852Z,19.73
2019-02-18T14:28:02.855Z,19.73
2019-02-18T14:29:12.878Z,19.74
2019-02-18T14:30:22.636Z,19.84
2019-02-18T14:31:32.623Z,19.88
2019-02-18T14:32:42.120Z,19.84
2019-02-18T14:33:51.887Z,19.87
2019-02-18T14:35:01.623Z,19.95
2019-02-18T14:36:10.853Z,19.92
2019-02-18T14:37:20.613Z,19.91
2019-02-18T14:38:30.109Z,19.92
2019-02-18T14:39:39.600Z,19.86
2019-02-18T14:40:49.361Z,19.88
2019-02-18T14:41:59.098Z,20.01
2019-02-18T14:43:08.588Z,19.99
2019-02-18T14:44:18.308Z,20.03
2019-02-18T14:45:28.070Z,20.05
2019-02-18T14:46:37.817Z,20.02
2019-02-18T14:47:47.820Z,19.96
2019-02-18T14:48:57.322Z,20.05
2019-02-18T14:50:08.633Z,20.06
2019-02-18T14:51:18.169Z,20.06
2019-02-18T14:52:28.221Z,20.02
2019-02-18T14:53:38.037Z,20.02
2019-02-18T14:54:48.125Z,20.05
2019-02-18T14:55:58.186Z,20.02
2019-02-18T14:57:08.605Z,19.99
2019-02-18T14:58:19.108Z,20.13
2019-02-18T14:59:29.977Z,20.06
2019-02-18T15:00:40.756Z,20.01
2019-02-18T15:01:51.384Z,20.06
2019-02-18T15:03:01.997Z,20.06
2019-02-18T15:04:12.083Z,20.05
2019-02-18T15:05:21.926Z,19.99